Terminal Aerodrome Forecast
Issued by NWS

Home | Current Version | Previous Version | Graphics & Text | Print | Product List | Glossary On
Versions: 1 2 3 4 5 6 7 8 9 10 11 12 13 14
000
FTUS43 KGRB 250205 AAB
TAFAUW
TAF AMD
KAUW 250205Z 2502/2524 35010G16KT P6SM VCSH BKN060
      TEMPO 2502/2503 6SM -SHRA BKN040
     FM250300 01005KT P6SM SKC
     FM251400 33008G15KT P6SM SKC
     FM252000 30006KT P6SM SKC=

USA.gov is the U.S. government's official web portal to all federal, state and local government web resources and services.